Latest Weather Observations for Hopetoun North

IDW60801

Issued at 4:13 am WST Thursday 19 September 2019 (issued every 10 minutes, with the page automatically refreshed every 10 minutes)

About weather observations | Map of weather stations | Latest weather observations for WA | Other Formats
Station Details ID: 009961 Name: HOPETOUN NORTH Lat: -33.93 Lon: 120.13 Height: 26.0 m
Data from the previous 72 hours. | See also: Recent months at Hopetoun North
Date/Time
WST
Temp
°C
App
Temp
°C
Dew
Point
°C
Rel
Hum
%
Delta-T
°C
Wind Press
QNH
hPa
Press
MSL
hPa
Rain since
9am
mm
Dir  Spd
km/h
Gust
km/h
Spd
kts
Gust
kts
19/04:00am 10.0 4.4 5.4 73 2.1 W 24 48 13 26 1008.7 1008.7 1.4
19/03:42am 10.3 4.0 5.5 72 2.2 W 28 46 15 25 1008.4 1008.4 1.4
19/03:30am 10.4 4.5 6.0 74 2.0 W 26 41 14 22 1008.4 1008.4 1.4
19/03:04am 10.8 4.6 6.2 73 2.1 W 28 46 15 25 1008.4 1008.4 1.4
19/03:00am 10.7 4.6 6.5 75 2.0 W 28 41 15 22 1008.4 1008.4 1.4
19/02:30am 10.9 4.8 6.5 74 2.1 W 28 54 15 29 1008.0 1008.0 1.4
19/02:00am 11.4 5.0 7.1 75 2.1 W 30 50 16 27 1007.8 1007.8 1.4
19/01:53am 11.5 5.5 7.0 74 2.2 W 28 50 15 27 1007.7 1007.7 1.4
19/01:30am 11.8 6.3 7.7 76 2.0 W 26 39 14 21 1007.4 1007.4 1.4
19/01:07am 11.9 5.7 7.8 76 2.0 W 30 50 16 27 1007.1 1007.1 1.4
19/01:00am 11.7 6.4 8.6 81 1.5 W 26 37 14 20 1007.1 1007.1 1.4
19/12:30am 12.2 6.6 8.7 79 1.7 W 28 39 15 21 1007.2 1007.2 1.2
19/12:09am 12.4 6.7 8.5 77 1.9 WSW 28 50 15 27 1007.0 1007.0 1.2
19/12:00am 12.4 7.3 9.2 81 1.6 WSW 26 41 14 22 1007.0 1007.0 1.2
 
Date/Time
WST
Temp
°C
App
Temp
°C
Dew
Point
°C
Rel
Hum
%
Delta-T
°C
Wind Press
QNH
hPa
Press
MSL
hPa
Rain since
9am
mm
Dir  Spd
km/h
Gust
km/h
Spd
kts
Gust
kts
18/11:30pm 12.7 5.4 10.2 85 1.3 WSW 39 59 21 32 1007.0 1007.0 1.2
18/11:06pm 12.9 5.2 11.6 92 0.7 WSW 43 63 23 34 1006.5 1006.5 1.2
18/11:00pm 13.3 6.3 11.4 88 1.0 WSW 39 63 21 34 1006.4 1006.4 1.2
18/10:56pm 15.0 9.6 9.4 69 2.9 W 28 61 15 33 1006.3 1006.3 0.2
18/10:30pm 16.9 11.9 11.0 68 3.2 W 28 46 15 25 1005.6 1005.6 0.0
18/10:00pm 16.7 12.2 12.7 77 2.2 WNW 28 50 15 27 1005.6 1005.6 0.0
18/09:44pm 17.1 12.7 12.8 76 2.4 WNW 28 52 15 28 1005.5 1005.5 0.0
18/09:30pm 16.7 12.6 12.8 78 2.2 WNW 26 43 14 23 1005.1 1005.1 0.0
18/09:00pm 16.9 13.2 12.6 76 2.4 WNW 24 44 13 24 1005.5 1005.5 0.0
18/08:30pm 19.8 14.5 9.7 52 5.4 NW 28 44 15 24 1005.1 1005.1 0.0
18/08:00pm 19.7 16.3 9.0 50 5.6 NW 17 28 9 15 1005.4 1005.4 0.0
18/07:30pm 19.5 16.6 8.2 48 5.8 NNW 13 19 7 10 1005.5 1005.5 0.0
18/07:00pm 20.0 15.9 8.0 46 6.2 NW 19 32 10 17 1005.7 1005.7 0.0
18/06:30pm 20.5 15.7 7.2 42 6.8 NW 22 35 12 19 1005.7 1005.7 0.0
18/06:10pm 20.9 14.9 7.2 41 7.0 NW 28 46 15 25 1005.8 1005.8 0.0
18/06:00pm 20.9 16.1 7.5 42 6.9 NW 22 41 12 22 1006.0 1006.0 0.0
18/05:30pm 21.5 16.4 7.7 41 7.2 NW 24 39 13 21 1006.0 1006.0 0.0
18/05:00pm 22.4 18.0 8.9 42 7.2 WNW 22 41 12 22 1006.2 1006.2 0.0
18/04:41pm 22.4 16.4 8.5 41 7.4 WNW 30 50 16 27 1006.3 1006.3 0.0
18/04:30pm 22.7 17.9 8.8 41 7.4 WNW 24 44 13 24 1006.3 1006.3 0.0
18/04:00pm 23.6 18.0 8.8 39 8.0 NW 28 48 15 26 1006.0 1006.0 0.0
18/03:54pm 23.4 17.8 8.7 39 7.9 NW 28 48 15 26 1006.0 1006.0 0.0
18/03:30pm 24.2 18.8 8.2 36 8.5 NW 26 44 14 24 1005.9 1005.9 0.0
18/03:02pm 24.3 18.6 8.3 36 8.5 NW 28 48 15 26 1006.0 1006.0 0.0
18/03:00pm 24.4 18.3 8.4 36 8.6 NW 30 48 16 26 1006.0 1006.0 0.0
18/02:55pm 24.5 18.7 8.0 35 8.8 NW 28 48 15 26 1006.1 1006.1 0.0
18/02:30pm 25.0 20.3 7.6 33 9.2 NW 22 41 12 22 1006.2 1006.2 0.0
18/02:00pm 25.2 20.5 7.8 33 9.3 NW 22 35 12 19 1006.6 1006.6 0.0
18/01:30pm 24.9 19.7 7.1 32 9.3 NW 24 37 13 20 1007.3 1007.3 0.0
18/01:00pm 25.1 20.9 7.3 32 9.4 NW 19 32 10 17 1007.8 1007.8 0.0
18/12:30pm 24.2 20.1 7.8 35 8.7 NW 19 33 10 18 1008.4 1008.4 0.0
18/12:00pm 23.0 18.5 8.7 40 7.6 NW 22 35 12 19 1009.2 1009.2 0.0
18/11:30am 22.8 18.8 8.9 41 7.4 NW 20 33 11 18 1009.9 1009.9 0.0
18/11:00am 22.0 18.6 9.2 44 6.9 WNW 17 28 9 15 1010.7 1010.7 0.0
18/10:30am 21.3 17.5 9.2 46 6.5 WNW 19 32 10 17 1011.4 1011.4 0.0
18/10:00am 20.4 16.5 9.6 50 5.8 WNW 20 32 11 17 1011.8 1011.8 0.0
18/09:30am 19.2 16.8 11.3 60 4.3 NW 15 24 8 13 1012.4 1012.4 0.0
18/09:00am 18.1 16.0 12.3 69 3.2 W 15 26 8 14 1013.0 1013.0 0.0
18/08:30am 16.9 14.8 12.4 75 2.5 NW 15 24 8 13 1013.1 1013.1 0.0
18/08:00am 16.3 14.7 12.8 80 1.9 WNW 13 24 7 13 1013.5 1013.5 0.0
18/07:30am 15.4 16.4 13.2 87 1.2 CALM 0 0 0 0 1013.5 1013.5 0.0
18/07:00am 14.6 15.6 13.1 91 0.8 CALM 0 4 0 2 1013.7 1013.7 0.0
18/06:30am 13.9 14.8 12.8 93 0.6 CALM 0 0 0 0 1013.6 1013.6 0.0
18/06:00am 13.7 14.1 12.6 93 0.6 N 2 4 1 2 1013.5 1013.5 0.0
18/05:30am 13.8 13.5 12.7 93 0.6 NNW 6 7 3 4 1013.5 1013.5 0.0
18/05:00am 13.8 13.5 12.7 93 0.6 N 6 7 3 4 1013.5 1013.5 0.0
18/04:30am 14.0 13.6 13.1 94 0.5 NNW 7 11 4 6 1013.5 1013.5 0.0
18/04:00am 13.7 13.3 12.9 95 0.4 NNW 7 9 4 5 1013.8 1013.8 0.0
18/03:30am 13.5 13.1 12.9 96 0.3 NNW 7 9 4 5 1014.0 1014.0 0.0
18/03:00am 13.4 13.1 12.6 95 0.4 NNW 6 9 3 5 1013.9 1013.9 0.0
18/02:30am 13.5 13.1 12.9 96 0.3 NW 7 9 4 5 1014.1 1014.1 0.0
18/02:00am 13.4 12.9 12.6 95 0.4 NNW 7 7 4 4 1014.2 1014.2 0.0
18/01:30am 13.7 13.4 12.8 94 0.5 NNW 6 7 3 4 1014.2 1014.2 0.0
18/01:00am 14.6 14.4 13.0 90 0.9 WNW 6 9 3 5 1014.6 1014.6 0.0
18/12:30am 15.5 15.3 13.5 88 1.1 SW 7 9 4 5 1014.9 1014.9 0.0
18/12:00am 15.8 15.2 13.5 86 1.3 SW 9 11 5 6 1015.1 1015.1 0.0
 
Date/Time
WST
Temp
°C
App
Temp
°C
Dew
Point
°C
Rel
Hum
%
Delta-T
°C
Wind Press
QNH
hPa
Press
MSL
hPa
Rain since
9am
mm
Dir  Spd
km/h
Gust
km/h
Spd
kts
Gust
kts
17/11:30pm 16.0 15.0 13.5 85 1.4 SW 11 15 6 8 1015.1 1015.1 0.0
17/11:00pm 16.3 14.9 13.4 83 1.6 SW 13 15 7 8 1015.2 1015.2 0.0
17/10:30pm 16.3 15.3 13.4 83 1.6 SW 11 17 6 9 1015.2 1015.2 0.0
17/10:00pm 16.4 15.6 13.9 85 1.4 SSW 11 17 6 9 1015.3 1015.3 0.0
17/09:30pm 16.6 15.0 13.9 84 1.5 SSW 15 22 8 12 1015.3 1015.3 0.0
17/09:00pm 16.8 14.4 13.7 82 1.8 SSW 19 24 10 13 1015.5 1015.4 0.0
17/08:30pm 17.0 14.4 13.9 82 1.8 SSW 20 28 11 15 1015.7 1015.6 0.0
17/08:00pm 17.2 14.3 15.0 87 1.3 SSW 24 33 13 18 1015.8 1015.7 0.0
17/07:30pm 17.3 14.7 14.8 85 1.4 SW 22 30 12 16 1015.2 1015.2 0.0
17/07:00pm 17.6 14.9 14.7 83 1.7 SSW 22 30 12 16 1014.7 1014.7 0.0
17/06:30pm 18.1 14.6 13.4 74 2.7 SW 24 33 13 18 1014.4 1014.4 0.0
17/06:00pm 18.4 15.1 14.1 76 2.5 SW 24 32 13 17 1013.5 1013.5 0.0
17/05:30pm 19.0 15.3 13.8 72 3.0 SW 26 33 14 18 1013.1 1013.1 0.0
17/05:00pm 19.1 16.5 15.8 81 2.0 SSW 24 33 13 18 1012.4 1012.4 0.0
17/04:30pm 20.3 16.6 15.1 72 3.1 SSW 28 39 15 21 1011.7 1011.7 0.0
17/04:20pm 21.1 18.4 14.7 67 3.8 SSW 22 46 12 25 1011.2 1011.2 0.0
17/04:18pm 21.9 20.0 14.3 62 4.4 SSW 17 46 9 25 1010.9 1010.9 0.0
17/04:00pm 27.3 26.0 11.3 37 9.1 SE 9 15 5 8 1010.2 1010.2 0.0
17/03:30pm 26.6 24.5 11.1 38 8.8 ESE 13 19 7 10 1010.2 1010.2 0.0
17/03:00pm 24.8 22.4 12.7 47 7.0 ESE 17 20 9 11 1010.4 1010.4 0.0
17/02:30pm 24.4 22.4 12.7 48 6.7 ESE 15 22 8 12 1010.6 1010.6 0.0
17/02:00pm 24.5 22.1 11.5 44 7.3 SE 15 24 8 13 1011.0 1011.0 0.0
17/01:30pm 26.4 23.8 12.1 41 8.2 SE 17 20 9 11 1011.4 1011.4 0.0
17/01:00pm 24.8 22.8 12.7 47 7.0 SE 15 19 8 10 1011.9 1011.9 0.0
17/12:30pm 27.0 24.8 10.7 36 9.2 S 13 20 7 11 1012.5 1012.5 0.0
17/12:00pm 29.1 26.1 9.3 29 11.0 WNW 15 24 8 13 1013.1 1013.1 0.0
17/11:30am 29.3 26.8 8.4 27 11.5 NNW 11 19 6 10 1013.5 1013.5 0.0
17/11:00am 28.5 25.2 8.2 28 11.1 NW 15 24 8 13 1014.0 1014.0 0.0
17/10:30am 27.1 24.3 8.5 31 10.1 NNW 13 19 7 10 1014.4 1014.4 0.0
17/10:00am 25.5 21.5 8.1 33 9.3 NNW 19 28 10 15 1014.8 1014.8 0.0
17/09:30am 23.5 20.1 9.1 40 7.8 N 17 28 9 15 1015.1 1015.1 0.0
17/09:00am 21.1 18.0 8.7 45 6.5 N 15 26 8 14 1015.6 1015.5 0.0
17/08:30am 19.1 15.4 8.1 49 5.7 N 17 22 9 12 1015.7 1015.6 0.0
17/08:00am 17.5 14.2 8.1 54 4.8 N 15 20 8 11 1016.0 1015.9 0.0
17/07:30am 16.7 12.0 7.6 55 4.6 NNE 22 32 12 17 1016.1 1016.0 0.0
17/07:00am 15.1 11.0 7.9 62 3.6 NNE 19 24 10 13 1016.1 1016.0 0.0
17/06:30am 12.2 9.3 8.1 76 2.0 NNE 13 19 7 10 1016.2 1016.1 0.0
17/06:00am 11.1 8.1 7.6 79 1.7 NNE 13 17 7 9 1016.2 1016.1 0.0
17/05:30am 9.7 6.7 7.6 87 1.0 NNE 13 17 7 9 1016.3 1016.2 0.0
17/05:00am 8.4 5.7 7.2 92 0.6 NE 11 13 6 7 1016.5 1016.4 0.0
17/04:30am 8.2 5.9 7.3 94 0.4 NE 9 11 5 6 1016.5 1016.4 0.0
17/04:00am 8.2 6.3 7.4 95 0.4 NE 7 9 4 5 1016.6 1016.5 0.0
17/03:30am 8.3 6.0 7.5 95 0.4 NE 9 11 5 6 1016.6 1016.5 0.0
17/03:00am 8.6 5.9 7.5 93 0.5 NE 11 15 6 8 1016.9 1016.8 0.0
17/02:30am 9.2 6.3 8.1 93 0.5 NE 13 15 7 8 1017.1 1017.0 0.0
17/02:00am 9.6 6.6 9.1 97 0.2 NE 15 19 8 10 1017.4 1017.3 0.0
17/01:30am 8.8 6.4 8.7 99 0.0 NE 11 13 6 7 1017.8 1017.7 0.0
17/01:00am 9.2 7.8 8.9 98 0.1 NE 6 9 3 5 1018.4 1018.3 0.0
17/12:30am 10.0 8.6 9.4 96 0.3 NE 7 9 4 5 1018.9 1018.8 0.0
17/12:00am 11.2 9.2 10.1 93 0.6 NE 11 13 6 7 1019.1 1019.0 0.0
 
Date/Time
WST
Temp
°C
App
Temp
°C
Dew
Point
°C
Rel
Hum
%
Delta-T
°C
Wind Press
QNH
hPa
Press
MSL
hPa
Rain since
9am
mm
Dir  Spd
km/h
Gust
km/h
Spd
kts
Gust
kts
16/11:30pm 11.7 10.7 10.9 95 0.4 NNE 7 9 4 5 1019.5 1019.4 0.0
16/11:00pm 11.9 10.5 11.0 94 0.5 NNE 9 11 5 6 1019.9 1019.9 0.0
16/10:30pm 11.9 10.5 11.0 94 0.5 NNE 9 11 5 6 1020.2 1020.2 0.0
16/10:00pm 12.5 11.6 11.4 93 0.6 NE 7 11 4 6 1020.6 1020.6 0.0
16/09:30pm 12.7 13.1 11.3 91 0.7 CALM 0 0 0 0 1021.0 1021.0 0.0
16/09:00pm 13.0 12.6 11.1 88 1.0 NNE 4 6 2 3 1021.2 1021.2 0.0
16/08:30pm 14.0 13.2 11.7 86 1.2 NE 7 11 4 6 1021.3 1021.3 0.0
16/08:00pm 14.4 13.2 11.7 84 1.4 ENE 9 13 5 7 1021.3 1021.3 0.0
16/07:30pm 15.1 12.4 11.7 80 1.8 E 17 26 9 14 1021.3 1021.3 0.0
16/07:00pm 15.3 12.6 11.7 79 1.9 E 17 30 9 16 1021.1 1021.1 0.0
16/06:30pm 15.4 12.3 11.6 78 2.0 E 19 33 10 18 1020.8 1020.8 0.0
16/06:00pm 15.6 11.0 11.2 75 2.3 E 26 41 14 22 1020.6 1020.6 0.0
16/05:30pm 15.8 11.6 11.2 74 2.5 ESE 24 39 13 21 1020.7 1020.7 0.0
16/05:00pm 15.9 10.9 11.1 73 2.6 ESE 28 41 15 22 1020.8 1020.8 0.0
16/04:30pm 16.6 11.1 10.7 68 3.1 ESE 30 41 16 22 1021.0 1021.0 0.0
16/04:00pm 16.6 11.4 10.2 66 3.4 ESE 28 39 15 21 1021.1 1021.1 0.0
16/03:30pm 17.5 12.3 10.4 63 3.8 ESE 28 41 15 22 1021.1 1021.1 0.0
16/03:00pm 17.5 12.3 10.1 62 3.9 ESE 28 41 15 22 1021.3 1021.3 0.0
16/02:30pm 17.2 11.1 9.9 62 3.8 ESE 32 43 17 23 1021.5 1021.5 0.0
16/02:00pm 17.4 11.3 9.6 60 4.1 ESE 32 43 17 23 1021.8 1021.8 0.0
16/01:30pm 17.6 11.8 9.5 59 4.2 ESE 30 41 16 22 1022.2 1022.2 0.0
16/01:00pm 18.4 14.1 9.2 55 4.8 E 22 35 12 19 1022.7 1022.7 0.0
16/12:30pm 19.6 14.9 6.0 41 6.7 ENE 20 37 11 20 1023.2 1023.2 0.0
16/12:00pm 18.5 12.9 5.4 42 6.3 ENE 24 35 13 19 1023.9 1023.9 0.0
16/11:30am 18.3 13.6 6.2 45 6.0 NE 20 30 11 16 1024.4 1024.4 0.0
16/11:00am 17.8 12.8 6.3 47 5.6 ENE 22 37 12 20 1025.0 1025.0 0.0
16/10:30am 17.4 12.8 6.3 48 5.5 ENE 20 35 11 19 1025.4 1025.4 0.0
16/10:00am 16.4 11.0 6.2 51 4.9 NE 24 33 13 18 1025.7 1025.7 0.0
16/09:30am 16.4 11.5 7.1 54 4.6 NE 22 32 12 17 1026.1 1026.1 0.0
16/09:00am 15.6 10.8 7.4 58 4.0 NE 22 33 12 18 1026.4 1026.4 0.2
16/08:30am 14.4 9.6 7.5 63 3.4 NE 22 32 12 17 1026.6 1026.6 0.2
16/08:00am 13.6 9.5 8.0 69 2.8 NE 19 26 10 14 1026.9 1026.9 0.2
16/07:30am 12.6 9.0 8.5 76 2.0 NE 17 22 9 12 1026.8 1026.8 0.2
16/07:00am 11.8 9.4 8.8 82 1.5 NNE 11 17 6 9 1026.7 1026.7 0.2
16/06:30am 11.6 9.3 9.0 84 1.3 NNE 11 17 6 9 1026.5 1026.5 0.2
16/06:00am 11.7 8.6 8.7 82 1.5 NE 15 19 8 10 1026.4 1026.4 0.2
16/05:30am 11.6 9.5 9.9 89 0.9 NE 11 17 6 9 1026.4 1026.4 0.2
16/05:00am 11.6 9.2 10.0 90 0.8 NE 13 19 7 10 1026.1 1026.1 0.2
16/04:30am 11.5 9.5 10.2 92 0.7 NE 11 17 6 9 1026.1 1026.1 0.2

Other formats

Comma delimited format used in spreadsheet applications
http://www.bom.gov.au/fwo/IDW60801/IDW60801.95635.axf

JavaScript Object Notation format (JSON) in row-major order
http://www.bom.gov.au/fwo/IDW60801/IDW60801.95635.json

Data quality

Most of these data are generated automatically and are frequently updated. Quality checks on data are not normally performed. It is possible for incorrect values to appear. Refer to information at About Latest Weather Observations and please check the disclaimer before using these data.